Time;durP1;ratioP1;P1;durP2;ratioP2;P2;SDS_P1;SDS_P2;PMS_P1;PMS_P2;Temp;Humidity;BMP_temperature;BMP_pressure;BME280_temperature;BME280_humidity;BME280_pressure;Samples;Min_cycle;Max_cycle;Signal;HPM_P1;HPM_P2
2022/12/01 00:00:27;;;;;;;31.48;18.25;;;;;;;5.69;86.57;98641.78;4197474;28;20736;-85
2022/12/01 00:02:30;;;;;;;28.15;17.05;;;;;;;5.74;85.92;98634.69;4182140;28;20206;-86
2022/12/01 00:04:33;;;;;;;29.70;16.92;;;;;;;5.75;86.84;98639.81;4188617;28;20218;-86
2022/12/01 00:06:36;;;;;;;31.42;17.23;;;;;;;5.71;86.27;98638.22;4198176;28;20229;-86
2022/12/01 00:08:39;;;;;;;30.88;17.10;;;;;;;5.71;86.48;98637.38;4192403;28;20214;-85
2022/12/01 00:10:41;;;;;;;30.67;16.67;;;;;;;5.65;86.43;98642.78;4197052;28;20198;-86
2022/12/01 00:12:44;;;;;;;28.08;16.27;;;;;;;5.63;86.22;98634.25;4183712;28;20222;-86
2022/12/01 00:14:53;;;;;;;30.50;17.63;;;;;;;5.65;86.05;98642.78;4214912;28;20229;-86
2022/12/01 00:16:56;;;;;;;27.42;15.70;;;;;;;5.68;86.30;98635.75;4200901;28;20208;-86
2022/12/01 00:18:59;;;;;;;30.95;17.45;;;;;;;5.71;86.77;98645.13;4185118;28;20211;-85
2022/12/01 00:21:03;;;;;;;27.02;16.42;;;;;;;5.71;86.51;98639.97;4181336;28;20880;-86
2022/12/01 00:23:06;;;;;;;32.58;16.95;;;;;;;5.68;86.63;98638.34;4184164;28;20206;-86
2022/12/01 00:25:09;;;;;;;29.85;16.90;;;;;;;5.61;86.39;98636.91;4198445;28;20252;-86
2022/12/01 00:27:12;;;;;;;32.13;17.00;;;;;;;5.60;86.77;98636.13;4187259;28;20206;-86
2022/12/01 00:29:15;;;;;;;28.63;17.23;;;;;;;5.59;86.82;98634.44;4194377;28;20693;-86
2022/12/01 00:31:20;;;;;;;27.90;16.42;;;;;;;5.58;87.00;98641.38;4185972;28;20230;-86
2022/12/01 00:33:24;;;;;;;24.50;14.52;;;;;;;5.46;86.34;98635.81;4202202;28;20279;-86
2022/12/01 00:35:27;;;;;;;30.13;17.90;;;;;;;5.50;86.11;98639.97;4196795;28;20202;-86
2022/12/01 00:37:31;;;;;;;27.33;15.27;;;;;;;5.49;86.32;98643.47;4185935;28;20195;-86
2022/12/01 00:39:34;;;;;;;24.55;15.13;;;;;;;5.42;85.88;98648.03;4186213;28;20774;-86
2022/12/01 00:41:37;;;;;;;24.15;13.90;;;;;;;5.41;85.63;98642.91;4185304;28;20197;-86
2022/12/01 00:43:40;;;;;;;27.33;15.55;;;;;;;5.42;85.98;98645.44;4185963;28;20292;-86
2022/12/01 00:45:44;;;;;;;28.70;16.17;;;;;;;5.34;86.32;98641.50;4184638;28;20210;-86
2022/12/01 00:47:48;;;;;;;24.70;15.07;;;;;;;5.34;86.42;98644.91;4195636;28;20251;-86
2022/12/01 00:49:51;;;;;;;25.25;14.68;;;;;;;5.38;85.36;98646.50;4185780;28;20213;-86
2022/12/01 00:51:54;;;;;;;26.52;15.07;;;;;;;5.36;85.67;98635.34;4197658;28;20213;-86
2022/12/01 00:53:58;;;;;;;24.83;14.80;;;;;;;5.41;84.11;98632.56;4178175;28;20230;-86
2022/12/01 00:56:01;;;;;;;25.38;14.35;;;;;;;5.43;84.93;98634.22;4197328;28;20263;-87
2022/12/01 00:58:04;;;;;;;30.35;16.20;;;;;;;5.48;84.95;98634.03;4199533;28;20202;-86
2022/12/01 01:00:08;;;;;;;24.58;14.82;;;;;;;5.55;85.45;98633.72;4194782;28;20205;-86
2022/12/01 01:02:11;;;;;;;26.05;14.77;;;;;;;5.62;86.30;98638.59;4184194;28;20198;-86
2022/12/01 01:04:16;;;;;;;25.85;14.25;;;;;;;5.68;85.54;98642.66;4196589;28;20226;-86
2022/12/01 01:06:19;;;;;;;24.90;14.02;;;;;;;5.74;86.24;98639.88;4197591;28;20198;-86
2022/12/01 01:08:22;;;;;;;24.83;15.02;;;;;;;5.79;86.35;98648.31;4183405;28;20203;-86
2022/12/01 01:10:25;;;;;;;26.63;14.65;;;;;;;5.85;85.96;98646.31;4200651;28;20677;-85
2022/12/01 01:12:28;;;;;;;26.92;15.02;;;;;;;5.88;85.58;98645.31;4197089;28;20205;-86
2022/12/01 01:14:32;;;;;;;25.60;14.63;;;;;;;5.92;85.37;98652.06;4183452;28;20198;-86
2022/12/01 01:16:35;;;;;;;24.10;14.60;;;;;;;5.97;85.77;98648.38;4198516;28;20580;-85
2022/12/01 01:18:38;;;;;;;24.50;14.00;;;;;;;6.02;86.34;98648.19;4188643;28;20218;-86
2022/12/01 01:20:43;;;;;;;29.08;16.70;;;;;;;6.07;86.05;98652.25;4187687;28;20225;-86
2022/12/01 01:22:46;;;;;;;27.00;16.90;;;;;;;6.09;85.50;98659.06;4181880;28;20210;-86
2022/12/01 01:24:49;;;;;;;26.13;14.75;;;;;;;6.11;84.84;98656.41;4185331;28;20212;-86
2022/12/01 01:26:54;;;;;;;23.35;14.30;;;;;;;6.13;84.97;98663.22;4188199;28;20536;-85
2022/12/01 01:28:59;;;;;;;27.38;16.50;;;;;;;6.15;84.74;98656.22;4198290;28;20663;-86
2022/12/01 01:31:05;;;;;;;26.73;15.77;;;;;;;6.13;85.01;98652.88;4196523;28;20297;-85
2022/12/01 01:33:09;;;;;;;27.38;15.98;;;;;;;6.12;84.70;98655.53;4200189;28;20218;-86
2022/12/01 01:35:12;;;;;;;24.48;14.20;;;;;;;6.09;83.72;98655.66;4201004;28;20250;-86
2022/12/01 01:37:16;;;;;;;24.00;13.77;;;;;;;6.01;83.28;98646.50;4196552;28;20210;-86
2022/12/01 01:39:19;;;;;;;23.67;14.73;;;;;;;5.98;83.38;98649.22;4181322;28;20564;-85
2022/12/01 01:41:23;;;;;;;22.13;12.55;;;;;;;5.97;83.28;98655.28;4185650;28;20204;-85
2022/12/01 01:43:45;;;;;;;25.60;14.52;;;;;;;5.95;83.75;98651.94;4185222;28;20758;-85
2022/12/01 01:45:47;;;;;;;23.15;13.25;;;;;;;5.88;83.48;98643.59;4187890;28;20198;-85
2022/12/01 01:47:52;;;;;;;25.20;13.75;;;;;;;5.86;83.84;98658.31;4189088;28;20344;-86
2022/12/01 01:49:56;;;;;;;24.40;13.68;;;;;;;5.72;83.53;98649.41;4199879;28;20992;-85
2022/12/01 01:51:59;;;;;;;23.33;13.65;;;;;;;5.70;83.78;98648.63;4193865;28;20198;-86
2022/12/01 01:54:06;;;;;;;26.98;13.98;;;;;;;5.65;84.03;98650.53;4194012;28;20232;-85
2022/12/01 01:56:10;;;;;;;26.55;14.43;;;;;;;5.52;84.13;98646.78;4199990;28;20205;-86
2022/12/01 01:58:13;;;;;;;28.83;15.15;;;;;;;5.46;84.93;98647.03;4184107;28;20206;-85
2022/12/01 02:00:18;;;;;;;24.60;14.60;;;;;;;5.46;84.61;98652.19;4184846;28;20207;-85
2022/12/01 02:02:21;;;;;;;24.55;13.85;;;;;;;5.45;84.60;98645.31;4188619;28;20205;-86
2022/12/01 02:04:25;;;;;;;25.60;14.38;;;;;;;5.35;84.70;98651.78;4197261;28;20220;-86
2022/12/01 02:06:28;;;;;;;25.63;14.60;;;;;;;5.31;84.91;98652.78;4201353;28;20295;-86
2022/12/01 02:08:33;;;;;;;24.33;14.93;;;;;;;5.29;85.43;98646.84;4184595;28;20631;-85
2022/12/01 02:10:44;;;;;;;26.77;14.75;;;;;;;5.31;85.11;98651.97;4181247;28;20289;-85
2022/12/01 02:12:56;;;;;;;29.25;15.82;;;;;;;5.27;85.07;98650.38;4198972;28;20606;-85
2022/12/01 02:15:09;;;;;;;25.33;14.38;;;;;;;5.19;85.62;98642.91;4182414;28;20232;-85
2022/12/01 02:17:21;;;;;;;23.08;13.95;;;;;;;5.21;85.50;98642.84;4185453;28;20208;-85
2022/12/01 02:19:59;;;;;;;27.33;15.50;;;;;;;5.21;85.75;98641.09;4191655;28;20215;-85
2022/12/01 02:22:10;;;;;;;25.95;14.15;;;;;;;5.20;85.52;98643.75;4183418;28;20327;-85
2022/12/01 02:24:50;;;;;;;29.10;15.20;;;;;;;5.24;86.24;98643.56;4190623;28;20287;-85
2022/12/01 02:26:57;;;;;;;27.17;14.52;;;;;;;5.21;85.63;98641.09;4181814;28;20205;-86
2022/12/01 02:29:27;;;;;;;26.27;15.27;;;;;;;5.15;85.56;98638.75;4189169;28;20256;-85
2022/12/01 02:31:35;;;;;;;27.50;14.95;;;;;;;5.10;85.12;98637.25;4202833;28;20203;-85
2022/12/01 02:33:41;;;;;;;24.20;14.15;;;;;;;5.08;86.11;98641.63;4182857;28;20777;-85
2022/12/01 02:35:48;;;;;;;25.98;13.98;;;;;;;5.07;85.80;98639.13;4196584;28;20232;-85
2022/12/01 02:38:00;;;;;;;28.25;15.80;;;;;;;5.02;85.10;98641.03;4188307;28;20247;-86
2022/12/01 02:40:06;;;;;;;26.10;14.68;;;;;;;5.00;85.44;98635.91;4187809;28;20209;-85
2022/12/01 02:42:48;;;;;;;27.27;15.52;;;;;;;4.98;85.64;98636.91;4206479;28;20232;-85
2022/12/01 02:44:41;;;;;;;25.50;14.30;;;;;;;4.86;85.95;98629.59;4206259;28;20210;-86
2022/12/01 02:46:47;;;;;;;28.30;15.73;;;;;;;4.81;86.72;98629.78;4198392;28;20227;-85
2022/12/01 02:48:52;;;;;;;28.48;16.27;;;;;;;4.88;86.00;98630.38;4182295;28;20723;-85
2022/12/01 02:50:58;;;;;;;26.73;15.40;;;;;;;4.93;85.93;98633.63;4199459;28;20234;-85
2022/12/01 02:53:01;;;;;;;28.25;16.23;;;;;;;4.99;86.25;98630.81;4182464;28;20205;-85
2022/12/01 02:55:05;;;;;;;27.02;16.15;;;;;;;4.92;85.95;98627.63;4190038;28;21241;-85
2022/12/01 02:57:09;;;;;;;31.67;16.05;;;;;;;4.92;85.76;98626.78;4197075;28;20262;-85
2022/12/01 02:59:14;;;;;;;29.80;16.80;;;;;;;4.81;86.58;98628.91;4186325;28;20205;-85
2022/12/01 03:01:32;;;;;;;31.20;17.25;;;;;;;4.82;87.01;98636.59;4204788;28;20236;-85
2022/12/01 03:03:48;;;;;;;30.17;16.27;;;;;;;4.92;86.54;98637.97;4186109;28;20220;-85
2022/12/01 03:05:57;;;;;;;28.58;15.95;;;;;;;4.97;86.14;98637.78;4196243;28;20210;-85
2022/12/01 03:08:04;;;;;;;28.27;15.80;;;;;;;5.00;85.81;98635.09;4198272;28;20220;-85
2022/12/01 03:10:14;;;;;;;29.10;16.08;;;;;;;5.02;85.93;98623.81;4197900;28;20262;-85
2022/12/01 03:12:22;;;;;;;30.52;17.05;;;;;;;5.03;85.46;98628.06;4199392;28;20232;-85
2022/12/01 03:14:34;;;;;;;28.40;16.05;;;;;;;5.09;86.30;98632.16;4188406;28;20640;-85
2022/12/01 03:16:44;;;;;;;26.73;15.63;;;;;;;5.12;86.49;98624.28;4203917;28;20278;-86
2022/12/01 03:18:53;;;;;;;27.25;15.45;;;;;;;5.19;86.54;98627.41;4198851;28;20650;-85
2022/12/01 03:20:59;;;;;;;30.80;17.17;;;;;;;5.28;86.38;98633.97;4202459;28;20209;-85
2022/12/01 03:23:08;;;;;;;34.70;18.27;;;;;;;5.32;85.87;98631.22;4200265;28;20206;-85
2022/12/01 03:25:12;;;;;;;29.83;16.25;;;;;;;5.34;85.98;98632.00;4200130;28;20247;-85
2022/12/01 03:27:17;;;;;;;31.52;17.33;;;;;;;5.39;85.83;98635.22;4186285;28;20213;-86
2022/12/01 03:29:25;;;;;;;29.02;16.00;;;;;;;5.40;85.69;98626.56;4189897;28;20757;-85
2022/12/01 03:31:31;;;;;;;31.05;17.33;;;;;;;5.43;85.69;98629.03;4186837;28;20259;-85
2022/12/01 03:33:36;;;;;;;25.90;16.27;;;;;;;5.44;85.13;98615.22;4206178;28;20661;-85
2022/12/01 03:35:43;;;;;;;30.05;17.50;;;;;;;5.46;84.81;98616.00;4206961;28;20229;-85
2022/12/01 03:37:51;;;;;;;29.88;17.00;;;;;;;5.43;84.80;98620.44;4184916;28;20206;-85
2022/12/01 03:39:56;;;;;;;30.83;16.33;;;;;;;5.43;85.41;98617.88;4198504;28;20293;-85
2022/12/01 03:42:07;;;;;;;31.10;17.25;;;;;;;5.42;85.06;98608.41;4200524;28;20250;-85
2022/12/01 03:44:15;;;;;;;29.77;16.20;;;;;;;5.41;85.53;98609.31;4190606;28;20326;-85
2022/12/01 03:46:23;;;;;;;29.88;17.20;;;;;;;5.43;86.04;98610.09;4187293;28;20259;-85
2022/12/01 03:48:26;;;;;;;30.77;16.77;;;;;;;5.45;86.02;98605.72;4189869;28;20201;-85
2022/12/01 03:50:35;;;;;;;37.38;20.70;;;;;;;5.48;85.79;98611.59;4184936;28;20583;-86
2022/12/01 03:52:44;;;;;;;32.70;17.85;;;;;;;5.45;85.73;98613.47;4189103;28;20259;-85
2022/12/01 03:54:55;;;;;;;28.88;16.10;;;;;;;5.42;85.97;98616.16;4200164;28;20274;-85
2022/12/01 03:57:03;;;;;;;31.33;17.45;;;;;;;5.37;85.61;98615.53;4196624;28;20237;-85
2022/12/01 03:59:08;;;;;;;28.27;17.88;;;;;;;5.36;86.23;98619.00;4202105;28;20206;-85
2022/12/01 04:01:12;;;;;;;28.30;17.48;;;;;;;5.39;86.47;98624.06;4189003;28;20237;-85
2022/12/01 04:03:18;;;;;;;30.85;16.23;;;;;;;5.41;86.15;98617.94;4192468;28;20206;-85
2022/12/01 04:05:21;;;;;;;33.03;17.60;;;;;;;5.44;86.48;98622.13;4185135;28;20688;-85
2022/12/01 04:07:27;;;;;;;25.77;16.20;;;;;;;5.48;86.25;98623.69;4201593;28;20244;-85
2022/12/01 04:09:32;;;;;;;38.47;17.40;;;;;;;5.48;85.86;98618.50;4185791;28;20202;-85
2022/12/01 04:13:55;;;;;;;30.75;16.98;;;;;;;5.53;86.07;98621.75;4183030;28;20302;-85
2022/12/01 04:15:58;;;;;;;28.85;17.00;;;;;;;5.53;85.82;98622.59;4186010;28;20221;-85
2022/12/01 04:18:01;;;;;;;30.08;17.90;;;;;;;5.57;86.14;98626.75;4199899;28;20669;-85
2022/12/01 04:20:06;;;;;;;28.50;16.63;;;;;;;5.58;86.35;98623.25;4196043;28;20671;-85
2022/12/01 04:22:09;;;;;;;26.63;15.57;;;;;;;5.60;86.05;98621.44;4185495;28;20244;-85
2022/12/01 04:24:11;;;;;;;29.63;17.70;;;;;;;5.62;85.34;98624.81;4181950;28;20206;-86
2022/12/01 04:26:16;;;;;;;29.83;16.83;;;;;;;5.57;85.17;98621.56;4205874;28;20206;-85
2022/12/01 04:28:19;;;;;;;28.00;17.15;;;;;;;5.51;85.52;98618.41;4184401;28;20752;-85
2022/12/01 04:30:22;;;;;;;30.17;17.15;;;;;;;5.49;85.44;98615.88;4182713;28;20241;-85
2022/12/01 04:32:25;;;;;;;29.38;16.95;;;;;;;5.42;85.56;98624.75;4195723;28;20210;-85
2022/12/01 04:34:28;;;;;;;30.65;17.05;;;;;;;5.32;85.79;98615.69;4196478;28;20216;-85
2022/12/01 04:36:33;;;;;;;29.40;17.40;;;;;;;5.32;85.88;98615.69;4181914;28;20207;-85
2022/12/01 04:38:36;;;;;;;32.15;18.55;;;;;;;5.36;86.39;98619.00;4182726;28;20393;-85
2022/12/01 04:40:39;;;;;;;28.50;17.02;;;;;;;5.24;86.13;98615.13;4200342;28;20197;-85
2022/12/01 04:42:45;;;;;;;28.25;17.55;;;;;;;5.15;85.94;98605.16;4185421;28;20205;-85
2022/12/01 04:44:48;;;;;;;32.70;18.27;;;;;;;4.99;87.21;98611.00;4199640;28;20306;-85
2022/12/01 04:46:52;;;;;;;30.60;17.38;;;;;;;4.89;87.15;98617.41;4185799;28;20843;-85
2022/12/01 04:48:55;;;;;;;32.03;18.88;;;;;;;4.84;88.03;98608.13;4195224;28;20665;-85
2022/12/01 04:50:58;;;;;;;32.25;18.48;;;;;;;4.83;87.58;98612.47;4200442;28;20667;-85
2022/12/01 04:53:01;;;;;;;30.83;18.55;;;;;;;4.75;87.35;98614.50;4186113;28;20688;-85
2022/12/01 04:55:05;;;;;;;31.88;18.67;;;;;;;4.60;88.05;98603.91;4185465;28;20218;-85
2022/12/01 04:57:08;;;;;;;34.03;17.85;;;;;;;4.53;88.43;98615.34;4197676;28;20212;-85
2022/12/01 04:59:12;;;;;;;29.40;17.15;;;;;;;4.56;89.18;98602.31;4180057;28;20255;-85
2022/12/01 05:01:17;;;;;;;29.83;17.42;;;;;;;4.62;88.19;98615.00;4187864;28;20251;-85
2022/12/01 05:03:20;;;;;;;30.33;17.20;;;;;;;4.58;89.42;98622.91;4200488;28;20275;-86
2022/12/01 05:05:24;;;;;;;27.95;17.08;;;;;;;4.59;89.82;98607.38;4185678;28;20234;-85
2022/12/01 05:07:27;;;;;;;30.10;17.38;;;;;;;4.66;89.55;98614.00;4185094;28;20206;-85
2022/12/01 05:09:30;;;;;;;33.67;17.98;;;;;;;4.70;88.29;98615.56;4195016;28;20299;-85
2022/12/01 05:11:34;;;;;;;33.97;18.05;;;;;;;4.62;89.11;98627.09;4186173;28;20269;-85
2022/12/01 05:13:38;;;;;;;32.97;18.50;;;;;;;4.58;89.13;98620.34;4200057;28;20228;-85
2022/12/01 05:15:43;;;;;;;32.75;18.25;;;;;;;4.54;89.10;98619.63;4193353;28;20263;-85
2022/12/01 05:17:46;;;;;;;30.70;17.13;;;;;;;4.60;88.89;98616.81;4199117;28;20695;-85
2022/12/01 05:22:10;;;;;;;34.78;19.20;;;;;;;4.56;89.55;98628.13;4185482;28;20705;-85
2022/12/01 05:24:14;;;;;;;31.35;18.15;;;;;;;4.49;89.61;98624.06;4196324;28;20216;-85
2022/12/01 05:26:18;;;;;;;31.33;17.98;;;;;;;4.49;89.77;98625.81;4183656;28;20206;-85
2022/12/01 05:28:22;;;;;;;29.83;17.42;;;;;;;4.53;89.86;98620.50;4184116;28;20257;-85
2022/12/01 05:30:25;;;;;;;27.98;17.42;;;;;;;4.58;88.96;98623.75;4180982;28;21740;-85
2022/12/01 05:32:32;;;;;;;30.98;17.27;;;;;;;4.66;89.73;98634.66;4195325;28;20243;-85
2022/12/01 05:34:35;;;;;;;31.83;17.73;;;;;;;4.66;89.42;98624.34;4184507;28;20206;-85
2022/12/01 05:36:38;;;;;;;29.42;16.70;;;;;;;4.73;89.40;98628.34;4186131;28;20705;-85
2022/12/01 05:38:41;;;;;;;30.30;17.08;;;;;;;4.75;89.37;98627.41;4197887;28;20197;-85
2022/12/01 05:40:50;;;;;;;28.95;18.00;;;;;;;4.85;89.29;98630.50;4180854;28;20202;-85
2022/12/01 05:42:53;;;;;;;29.08;16.83;;;;;;;4.93;89.85;98628.44;4203779;28;20288;-85
2022/12/01 05:44:56;;;;;;;33.88;18.95;;;;;;;5.03;89.36;98634.97;4187000;28;20209;-85
2022/12/01 05:46:59;;;;;;;28.85;17.00;;;;;;;5.13;89.70;98633.69;4202203;28;20220;-85
2022/12/01 05:49:03;;;;;;;29.67;18.58;;;;;;;5.19;89.06;98634.34;4213104;28;20669;-85
2022/12/01 05:51:10;;;;;;;30.42;17.98;;;;;;;5.23;88.38;98634.16;4185703;28;20411;-85
2022/12/01 05:53:14;;;;;;;31.20;19.02;;;;;;;5.24;87.96;98632.41;4202382;28;20237;-85
2022/12/01 05:55:17;;;;;;;29.88;18.40;;;;;;;5.25;87.51;98642.69;4188097;28;20200;-85
2022/12/01 05:57:20;;;;;;;28.90;18.02;;;;;;;5.30;88.32;98640.75;4202904;28;20207;-85
2022/12/01 05:59:23;;;;;;;28.83;18.20;;;;;;;5.33;88.37;98638.06;4199886;28;20224;-85
2022/12/01 06:01:26;;;;;;;27.02;16.60;;;;;;;5.33;87.60;98643.22;4203139;28;20205;-85
2022/12/01 06:03:29;;;;;;;31.02;17.58;;;;;;;5.32;87.81;98643.28;4186704;28;20737;-84
2022/12/01 06:05:34;;;;;;;30.80;17.02;;;;;;;5.33;88.21;98644.97;4189103;28;20206;-84
2022/12/01 06:07:39;;;;;;;29.15;17.20;;;;;;;5.38;87.23;98651.66;4206122;28;20198;-85
2022/12/01 06:09:44;;;;;;;27.73;16.65;;;;;;;5.37;87.37;98651.72;4200564;28;20263;-84
2022/12/01 06:11:47;;;;;;;29.02;17.63;;;;;;;5.35;87.23;98643.16;4185975;28;20755;-85
2022/12/01 06:13:54;;;;;;;30.75;18.38;;;;;;;5.38;87.35;98643.91;4198833;28;20201;-84
2022/12/01 06:15:58;;;;;;;32.35;18.00;;;;;;;5.39;86.96;98639.56;4184107;28;20223;-84
2022/12/01 06:18:01;;;;;;;29.38;18.20;;;;;;;5.35;86.44;98643.16;4201701;28;20240;-84
2022/12/01 06:20:06;;;;;;;30.10;17.08;;;;;;;5.38;86.50;98638.72;4185094;28;20237;-84
2022/12/01 06:22:10;;;;;;;28.73;16.80;;;;;;;5.36;86.52;98637.09;4200040;28;20216;-84
2022/12/01 06:24:14;;;;;;;30.42;17.27;;;;;;;5.38;87.23;98638.72;4183676;28;20201;-84
2022/12/01 06:26:17;;;;;;;27.00;16.75;;;;;;;5.35;86.80;98638.84;4198794;28;20199;-84
2022/12/01 06:28:20;;;;;;;26.02;16.17;;;;;;;5.33;87.08;98638.06;4188680;28;20207;-86
2022/12/01 06:30:24;;;;;;;27.65;17.45;;;;;;;5.32;86.70;98641.56;4204835;28;20256;-83
2022/12/01 06:32:27;;;;;;;29.55;16.70;;;;;;;5.31;86.74;98637.28;4202910;28;20239;-85
2022/12/01 06:34:30;;;;;;;25.00;15.85;;;;;;;5.27;87.06;98640.03;4184802;28;20198;-82
2022/12/01 06:36:33;;;;;;;27.52;16.40;;;;;;;5.34;86.77;98647.50;4200498;28;20641;-84
2022/12/01 06:38:38;;;;;;;28.55;17.35;;;;;;;5.37;86.81;98646.56;4198671;28;20254;-84
2022/12/01 06:40:43;;;;;;;26.83;16.38;;;;;;;5.29;87.32;98641.69;4198064;28;20932;-84
2022/12/01 06:42:46;;;;;;;29.73;17.02;;;;;;;5.29;87.49;98643.41;4187080;28;20206;-84
2022/12/01 06:44:49;;;;;;;30.88;17.00;;;;;;;5.23;86.68;98649.66;4188936;28;20870;-83
2022/12/01 06:46:52;;;;;;;27.42;16.50;;;;;;;5.29;86.82;98643.41;4201361;28;20197;-84
2022/12/01 06:48:55;;;;;;;28.63;16.73;;;;;;;5.34;87.28;98651.84;4201805;28;20702;-83
2022/12/01 06:50:58;;;;;;;30.52;17.30;;;;;;;5.38;87.51;98651.66;4199160;28;20567;-84
2022/12/01 06:53:02;;;;;;;27.75;17.17;;;;;;;5.38;87.14;98659.41;4197197;28;20194;-82
2022/12/01 06:55:07;;;;;;;29.88;16.15;;;;;;;5.35;87.04;98659.53;4191742;28;20634;-83
2022/12/01 06:57:10;;;;;;;27.48;16.20;;;;;;;5.39;87.66;98652.50;4182293;28;20230;-82
2022/12/01 06:59:13;;;;;;;28.00;16.67;;;;;;;5.40;87.18;98655.03;4191208;28;20300;-82
2022/12/01 07:01:17;;;;;;;28.40;17.17;;;;;;;5.41;86.92;98664.47;4204561;28;20222;-83
2022/12/01 07:03:20;;;;;;;30.35;16.30;;;;;;;5.42;87.00;98655.78;4186380;28;20202;-83
2022/12/01 07:05:23;;;;;;;29.40;16.98;;;;;;;5.37;86.90;98665.47;4195920;28;20201;-82
2022/12/01 07:07:26;;;;;;;26.55;16.38;;;;;;;5.35;87.34;98661.25;4197757;28;20203;-82
2022/12/01 07:09:29;;;;;;;29.88;17.55;;;;;;;5.34;86.99;98668.19;4198709;28;20266;-82
2022/12/01 07:11:35;;;;;;;29.67;17.83;;;;;;;5.39;86.87;98662.84;4202086;28;20738;-82
2022/12/01 07:13:38;;;;;;;28.48;17.45;;;;;;;5.23;87.33;98660.00;4201054;28;20202;-84
2022/12/01 07:15:41;;;;;;;28.92;17.00;;;;;;;5.24;87.26;98664.25;4184326;28;20205;-83
2022/12/01 07:17:45;;;;;;;31.42;18.70;;;;;;;5.25;87.25;98663.38;4198783;28;20226;-84
2022/12/01 07:19:48;;;;;;;27.15;17.13;;;;;;;5.26;87.54;98666.78;4200560;28;20840;-84
2022/12/01 07:21:52;;;;;;;27.42;16.30;;;;;;;5.29;87.72;98667.53;4198098;28;20237;-84
2022/12/01 07:23:55;;;;;;;29.60;17.45;;;;;;;5.23;87.11;98660.00;4196619;28;20206;-84
2022/12/01 07:25:59;;;;;;;32.05;16.67;;;;;;;5.15;87.57;98659.44;4198165;28;20202;-84
2022/12/01 07:28:04;;;;;;;27.73;15.57;;;;;;;5.16;87.53;98668.06;4203656;28;20315;-84
2022/12/01 07:30:08;;;;;;;31.33;17.45;;;;;;;5.13;87.38;98664.72;4183206;28;20194;-84
2022/12/01 07:32:11;;;;;;;29.42;16.90;;;;;;;5.12;87.77;98663.88;4199807;28;20292;-84
2022/12/01 07:34:15;;;;;;;29.88;18.33;;;;;;;5.16;88.60;98673.22;4188660;28;20626;-84
2022/12/01 07:36:18;;;;;;;28.10;17.88;;;;;;;5.14;87.53;98668.09;4181442;28;20566;-84
2022/12/01 07:38:21;;;;;;;33.67;18.85;;;;;;;5.21;87.68;98674.72;4184543;28;20209;-85
2022/12/01 07:40:24;;;;;;;58.30;31.70;;;;;;;5.25;88.60;98668.53;4197407;28;21019;-84
2022/12/01 07:42:27;;;;;;;61.63;31.50;;;;;;;5.28;87.62;98672.75;4194831;28;20215;-84
2022/12/01 07:44:32;;;;;;;31.80;17.70;;;;;;;5.32;87.41;98675.16;4136778;28;1125894;-83
2022/12/01 07:46:35;;;;;;;36.00;19.27;;;;;;;5.33;87.86;98676.00;4197732;28;20205;-83
2022/12/01 07:48:39;;;;;;;30.45;18.92;;;;;;;5.30;87.59;98668.38;4198127;28;20626;-83
2022/12/01 07:50:42;;;;;;;30.45;18.13;;;;;;;5.30;87.42;98671.78;4188895;28;20292;-84
2022/12/01 07:52:49;;;;;;;29.55;16.42;;;;;;;5.34;87.34;98673.34;4197625;28;20229;-83
2022/12/01 07:54:52;;;;;;;31.88;17.55;;;;;;;5.36;87.71;98678.47;4195568;28;20210;-83
2022/12/01 07:56:55;;;;;;;29.23;17.45;;;;;;;5.29;87.95;98674.41;4185246;28;20222;-83
2022/12/01 07:58:58;;;;;;;30.50;17.17;;;;;;;5.29;86.98;98670.13;4184713;28;20238;-83
2022/12/01 08:01:07;;;;;;;29.00;17.30;;;;;;;5.32;87.67;98677.75;4197527;28;20208;-84
2022/12/01 08:03:10;;;;;;;30.90;16.90;;;;;;;5.29;88.32;98675.28;4196102;28;20224;-84
2022/12/01 08:05:13;;;;;;;30.02;17.05;;;;;;;5.33;87.06;98678.59;4188986;28;20225;-84
2022/12/01 08:07:16;;;;;;;27.13;17.00;;;;;;;5.31;87.60;98678.66;4201299;28;20209;-83
2022/12/01 08:09:19;;;;;;;29.30;17.13;;;;;;;5.26;87.95;98674.53;4201387;28;20263;-84
2022/12/01 08:11:24;;;;;;;32.25;17.98;;;;;;;5.24;88.19;98684.94;4184368;28;20599;-84
2022/12/01 08:13:27;;;;;;;28.75;16.65;;;;;;;5.28;88.04;98680.50;4200825;28;20212;-84
2022/12/01 08:15:31;;;;;;;29.73;17.45;;;;;;;5.28;88.18;98677.94;4185591;28;20208;-84
2022/12/01 08:17:35;;;;;;;28.88;17.20;;;;;;;5.27;87.89;98687.41;4191438;28;20225;-84
2022/12/01 08:19:38;;;;;;;27.67;16.48;;;;;;;5.26;88.16;98685.75;4198149;28;20297;-83
2022/12/01 08:21:41;;;;;;;28.58;17.27;;;;;;;5.26;88.31;98682.28;4180693;28;20666;-84
2022/12/01 08:23:46;;;;;;;31.25;16.60;;;;;;;5.25;87.79;98689.22;4201740;28;20367;-84
2022/12/01 08:25:51;;;;;;;27.77;16.38;;;;;;;5.21;88.35;98692.81;4193134;28;20213;-84
2022/12/01 08:27:54;;;;;;;27.55;15.60;;;;;;;5.12;88.32;98684.56;4190640;28;20211;-85
2022/12/01 08:29:57;;;;;;;29.85;17.17;;;;;;;5.18;88.91;98687.75;4198104;28;20299;-84
2022/12/01 08:32:00;;;;;;;29.25;16.90;;;;;;;5.22;87.75;98689.34;4184904;28;20210;-84
2022/12/01 08:34:06;;;;;;;30.38;18.45;;;;;;;5.22;88.41;98693.66;4195173;28;20218;-86
2022/12/01 08:36:10;;;;;;;31.55;17.45;;;;;;;5.22;88.68;98691.91;4184517;28;20244;-84
2022/12/01 08:38:13;;;;;;;31.48;17.67;;;;;;;5.09;88.61;98683.84;4199432;28;20230;-84
2022/12/01 08:40:16;;;;;;;29.15;17.00;;;;;;;5.17;89.07;98686.09;4198488;28;20342;-84
2022/12/01 08:42:19;;;;;;;29.80;17.15;;;;;;;5.20;88.66;98688.56;4200876;28;20288;-84
2022/12/01 08:44:22;;;;;;;25.95;16.33;;;;;;;5.24;88.65;98687.53;4197212;28;20283;-84
2022/12/01 08:46:26;;;;;;;26.45;15.10;;;;;;;5.28;88.09;98691.69;4188725;28;20727;-84
2022/12/01 08:48:30;;;;;;;28.52;16.27;;;;;;;5.24;87.91;98687.53;4207968;28;20204;-84
2022/12/01 08:50:34;;;;;;;28.85;16.52;;;;;;;5.30;88.14;98692.47;4198185;28;20305;-84
2022/12/01 08:52:37;;;;;;;29.25;16.80;;;;;;;5.41;89.21;98685.16;4199946;28;20201;-84
2022/12/01 08:54:40;;;;;;;28.52;16.95;;;;;;;5.48;89.09;98696.94;4189928;28;20634;-84
2022/12/01 08:56:45;;;;;;;30.48;16.88;;;;;;;5.57;89.42;98700.91;4181252;28;20214;-84
2022/12/01 08:58:49;;;;;;;29.35;16.10;;;;;;;5.63;89.04;98702.34;4197200;28;20224;-84
2022/12/01 09:00:52;;;;;;;30.20;17.95;;;;;;;5.70;89.16;98702.97;4198295;28;20217;-84
2022/12/01 09:02:55;;;;;;;26.42;16.30;;;;;;;5.80;89.54;98712.06;4194489;28;20283;-84
2022/12/01 09:04:58;;;;;;;28.67;15.90;;;;;;;5.87;89.29;98710.94;4198197;28;20709;-84
2022/12/01 09:07:02;;;;;;;28.50;16.33;;;;;;;5.86;88.65;98707.47;4196395;28;20213;-84
2022/12/01 09:09:06;;;;;;;28.50;16.33;;;;;;;5.85;89.17;98712.72;4200144;28;20201;-84
2022/12/01 09:11:11;;;;;;;27.00;16.08;;;;;;;5.85;88.98;98715.31;4196222;28;20818;-84
2022/12/01 09:13:14;;;;;;;24.10;14.80;;;;;;;5.89;89.09;98714.28;4203770;28;20212;-84
2022/12/01 09:15:17;;;;;;;28.13;16.23;;;;;;;5.97;89.33;98707.91;4203837;28;20210;-84
2022/12/01 09:17:20;;;;;;;29.48;16.48;;;;;;;6.07;88.99;98718.72;4203525;28;20210;-84
2022/12/01 09:19:23;;;;;;;27.73;15.40;;;;;;;6.12;87.73;98722.84;4186022;28;20224;-84
2022/12/01 09:21:29;;;;;;;25.67;15.70;;;;;;;6.16;88.22;98714.88;4199396;28;20209;-84
2022/12/01 09:23:33;;;;;;;27.80;16.60;;;;;;;6.19;86.95;98714.75;4196461;28;20206;-85
2022/12/01 09:25:36;;;;;;;24.52;14.20;;;;;;;6.22;87.35;98716.34;4193672;28;20705;-84
2022/12/01 09:27:39;;;;;;;26.40;16.45;;;;;;;6.22;86.96;98719.81;4185312;28;20732;-84
2022/12/01 09:29:43;;;;;;;26.15;15.93;;;;;;;6.21;86.94;98712.94;4183771;28;20210;-84
2022/12/01 09:31:46;;;;;;;26.42;15.80;;;;;;;6.27;86.79;98712.69;4187821;28;20205;-84
2022/12/01 09:33:53;;;;;;;27.00;15.60;;;;;;;6.35;87.74;98709.78;4195231;28;20205;-84
2022/12/01 09:35:58;;;;;;;27.02;15.93;;;;;;;6.39;87.85;98712.16;4182786;28;20217;-84
2022/12/01 09:38:01;;;;;;;23.98;14.00;;;;;;;6.42;87.13;98712.03;4198983;28;20230;-84
2022/12/01 09:40:07;;;;;;;25.13;15.93;;;;;;;6.47;86.67;98712.69;4184264;28;20293;-84
2022/12/01 09:42:14;;;;;;;26.85;17.15;;;;;;;6.49;87.06;98712.63;4196967;28;20255;-84
2022/12/01 09:44:29;;;;;;;27.88;15.73;;;;;;;6.48;86.53;98711.78;4187176;28;20212;-83